Time;durP1;ratioP1;P1;durP2;ratioP2;P2;SDS_P1;SDS_P2;PMS_P1;PMS_P2;Temp;Humidity;BMP_temperature;BMP_pressure;BME280_temperature;BME280_humidity;BME280_pressure;Samples;Min_cycle;Max_cycle;Signal;HPM_P1;HPM_P2
2023/09/28 00:00:37;;;;;;;22.20;19.70;;;;;;;14.16;84.67;99322.73;225573;1281;138842;-72
2023/09/28 00:05:40;;;;;;;22.50;20.00;;;;;;;14.10;84.68;99321.68;225541;1281;138812;-72
2023/09/28 00:10:42;;;;;;;24.00;20.70;;;;;;;14.06;85.18;99318.56;225519;1281;138977;-72
2023/09/28 00:15:46;;;;;;;24.60;20.00;;;;;;;14.01;85.23;99319.35;225524;1281;138777;-71
2023/09/28 00:20:48;;;;;;;25.00;21.60;;;;;;;13.98;85.48;99321.33;225633;1281;25323;-71
2023/09/28 00:25:51;;;;;;;24.70;20.50;;;;;;;13.93;85.27;99320.91;225612;1281;138388;-71
2023/09/28 00:30:53;;;;;;;24.00;21.00;;;;;;;13.88;85.46;99320.25;225588;1276;138728;-71
2023/09/28 00:35:55;;;;;;;24.40;21.00;;;;;;;13.82;85.65;99320.83;225593;1281;138754;-71
2023/09/28 00:40:57;;;;;;;25.60;21.00;;;;;;;13.79;85.89;99318.75;225566;1279;138883;-71
2023/09/28 00:46:00;;;;;;;24.50;21.50;;;;;;;13.77;86.08;99320.04;225583;1281;138921;-72
2023/09/28 00:51:02;;;;;;;23.70;19.80;;;;;;;13.73;86.16;99324.63;225684;1281;22545;-72
2023/09/28 00:56:07;;;;;;;23.40;20.40;;;;;;;13.71;86.55;99323.95;225590;1278;138808;-72
2023/09/28 01:01:10;;;;;;;22.30;19.90;;;;;;;13.68;86.54;99323.44;225580;1272;138747;-72
2023/09/28 01:06:12;;;;;;;24.10;21.00;;;;;;;13.62;86.40;99324.19;225598;1281;138753;-72
2023/09/28 01:11:14;;;;;;;24.60;21.90;;;;;;;13.56;86.57;99324.39;225567;1281;138899;-72
2023/09/28 01:16:19;;;;;;;26.10;22.60;;;;;;;13.52;86.73;99320.06;225532;1281;139273;-72
2023/09/28 01:21:21;;;;;;;22.30;19.80;;;;;;;13.47;86.87;99315.02;225663;1279;24914;-72
2023/09/28 01:26:23;;;;;;;24.20;21.60;;;;;;;13.45;87.19;99319.98;225564;1279;138594;-72
2023/09/28 01:31:27;;;;;;;25.60;22.60;;;;;;;13.42;87.13;99318.08;225533;1281;139714;-72
2023/09/28 01:36:29;;;;;;;26.80;22.90;;;;;;;13.39;87.29;99320.34;225633;1281;139774;-72
2023/09/28 01:41:31;;;;;;;26.10;23.30;;;;;;;13.36;87.50;99320.07;225396;1281;208074;-72
2023/09/28 01:46:33;;;;;;;26.90;23.70;;;;;;;13.34;87.66;99323.21;225605;1280;138848;-72
2023/09/28 01:51:34;;;;;;;27.90;23.50;;;;;;;13.31;87.78;99315.55;225591;1281;138935;-72
2023/09/28 01:56:36;;;;;;;27.60;23.40;;;;;;;13.29;87.74;99319.16;225647;1279;22558;-72
2023/09/28 02:01:38;;;;;;;26.60;23.50;;;;;;;13.25;87.65;99318.50;225373;1281;138790;-72
2023/09/28 02:06:41;;;;;;;26.80;24.00;;;;;;;13.21;87.83;99315.21;225570;1280;138936;-72
2023/09/28 02:11:44;;;;;;;28.70;24.60;;;;;;;13.16;87.91;99313.23;225601;1279;140031;-72
2023/09/28 02:16:46;;;;;;;33.10;26.80;;;;;;;13.15;88.22;99314.99;225495;1281;138980;-72
2023/09/28 02:21:48;;;;;;;31.70;27.60;;;;;;;13.14;88.23;99313.48;225714;1279;140145;-71
2023/09/28 02:26:52;;;;;;;34.00;29.40;;;;;;;13.13;88.40;99312.78;225752;1281;22551;-71
2023/09/28 02:31:54;;;;;;;34.00;27.70;;;;;;;13.11;88.49;99312.45;225606;1279;138584;-72
2023/09/28 02:36:56;;;;;;;33.30;28.90;;;;;;;13.07;88.36;99309.87;225436;1281;138727;-71
2023/09/28 02:41:58;;;;;;;34.80;29.70;;;;;;;13.03;88.42;99313.38;225604;1281;138805;-72
2023/09/28 02:47:00;;;;;;;34.40;30.40;;;;;;;12.99;88.59;99311.77;225683;1281;139083;-72
2023/09/28 02:52:03;;;;;;;36.30;31.40;;;;;;;12.96;88.64;99311.81;225611;1273;139148;-72
2023/09/28 02:57:05;;;;;;;34.70;29.70;;;;;;;12.92;88.66;99315.66;225701;1281;22558;-72
2023/09/28 03:02:08;;;;;;;33.70;30.00;;;;;;;12.88;88.57;99312.86;225531;1281;138520;-72
2023/09/28 03:07:12;;;;;;;35.00;29.60;;;;;;;12.83;88.77;99311.46;225640;1279;138715;-72
2023/09/28 03:12:15;;;;;;;33.10;29.50;;;;;;;12.79;88.73;99314.83;225644;1267;138782;-72
2023/09/28 03:17:17;;;;;;;33.80;28.10;;;;;;;12.75;88.76;99313.21;225650;1279;138738;-72
2023/09/28 03:22:20;;;;;;;32.50;29.00;;;;;;;12.73;88.93;99313.32;225663;1277;138766;-72
2023/09/28 03:27:22;;;;;;;31.40;27.90;;;;;;;12.70;89.03;99309.70;225666;1281;22541;-71
2023/09/28 03:32:24;;;;;;;36.10;29.30;;;;;;;12.68;89.20;99309.10;225650;1280;138525;-71
2023/09/28 03:37:27;;;;;;;33.90;29.60;;;;;;;12.67;89.25;99307.83;225522;1281;139060;-71
2023/09/28 03:42:30;;;;;;;33.30;29.40;;;;;;;12.66;89.49;99309.65;225644;1279;139104;-71
2023/09/28 03:47:32;;;;;;;32.10;28.40;;;;;;;12.65;89.39;99303.60;225677;1281;139548;-72
2023/09/28 03:52:35;;;;;;;31.60;28.20;;;;;;;12.62;89.43;99303.77;225524;1276;138906;-71
2023/09/28 03:57:37;;;;;;;34.10;28.60;;;;;;;12.59;89.49;99303.91;225690;1280;138991;-71
2023/09/28 04:02:51;;;;;;;32.10;27.50;;;;;;;12.54;89.38;99299.13;225694;1276;23090;-72
2023/09/28 04:07:56;;;;;;;32.30;27.60;;;;;;;12.49;89.51;99298.89;225716;1281;139192;-72
2023/09/28 04:12:58;;;;;;;32.00;27.60;;;;;;;12.46;89.66;99300.23;225688;1280;138613;-73
2023/09/28 04:18:00;;;;;;;33.70;27.30;;;;;;;12.51;90.26;99295.70;225713;1279;139145;-73
2023/09/28 04:23:05;;;;;;;34.00;27.10;;;;;;;12.54;90.16;99298.71;225544;1281;138970;-72
2023/09/28 04:28:09;;;;;;;34.10;28.10;;;;;;;12.56;90.28;99296.66;225655;1279;138797;-71
2023/09/28 04:33:10;;;;;;;35.50;29.70;;;;;;;12.58;90.42;99296.08;225808;1281;22547;-72
2023/09/28 04:38:13;;;;;;;34.70;29.00;;;;;;;12.65;90.79;99299.92;225648;1281;138408;-72
2023/09/28 04:43:15;;;;;;;35.10;28.10;;;;;;;12.63;90.43;99302.48;225688;1276;139668;-72
2023/09/28 04:48:17;;;;;;;32.30;27.30;;;;;;;12.58;90.06;99304.15;225644;1280;138914;-72
2023/09/28 04:53:19;;;;;;;29.60;26.40;;;;;;;12.55;90.27;99305.29;225627;1279;139082;-72
2023/09/28 04:58:21;;;;;;;31.00;26.70;;;;;;;12.51;90.27;99300.56;225610;1280;138765;-72
2023/09/28 05:03:22;;;;;;;27.50;24.70;;;;;;;12.47;90.22;99298.67;225763;1278;22606;-73
2023/09/28 05:08:25;;;;;;;29.50;25.70;;;;;;;12.44;90.23;99293.39;225669;1278;138852;-72
2023/09/28 05:13:30;;;;;;;29.00;25.90;;;;;;;12.38;89.92;99299.06;225691;1278;139558;-73
2023/09/28 05:18:31;;;;;;;29.70;26.50;;;;;;;12.37;90.26;99305.33;225710;1277;138740;-73
2023/09/28 05:23:33;;;;;;;28.70;25.40;;;;;;;12.46;90.75;99310.01;225652;1280;139615;-73
2023/09/28 05:28:35;;;;;;;28.70;25.70;;;;;;;12.55;90.75;99312.31;225583;1278;138919;-73
2023/09/28 05:33:37;;;;;;;28.70;25.60;;;;;;;12.65;90.82;99308.77;225689;1281;139139;-73
2023/09/28 05:38:39;;;;;;;38.50;28.60;;;;;;;12.75;91.16;99314.27;225837;1279;22550;-73
2023/09/28 05:43:42;;;;;;;34.20;27.40;;;;;;;12.86;91.02;99313.90;225461;1277;138641;-74
2023/09/28 05:48:43;;;;;;;28.70;25.40;;;;;;;12.95;91.10;99318.30;225529;1274;138828;-73
2023/09/28 05:53:45;;;;;;;31.50;25.10;;;;;;;13.01;90.70;99318.73;225213;1261;138912;-73
2023/09/28 05:58:49;;;;;;;31.40;25.50;;;;;;;13.11;90.91;99315.79;225512;1258;138868;-78
2023/09/28 06:03:51;;;;;;;27.80;24.80;;;;;;;13.22;90.84;99317.05;224941;1265;139066;-73
2023/09/28 06:08:53;;;;;;;28.80;25.80;;;;;;;13.35;91.02;99318.59;225258;1259;22544;-73
2023/09/28 06:13:55;;;;;;;29.90;26.00;;;;;;;13.54;91.38;99323.06;225091;1261;139174;-73
2023/09/28 06:19:09;;;;;;;29.40;26.20;;;;;;;13.77;91.43;99323.74;225141;1266;138785;-73
2023/09/28 06:24:11;;;;;;;30.80;27.40;;;;;;;13.97;91.68;99327.71;225035;1259;140478;-72
2023/09/28 06:29:13;;;;;;;32.80;26.20;;;;;;;14.18;91.64;99329.03;224792;1259;139026;-72
2023/09/28 06:34:15;;;;;;;29.80;26.60;;;;;;;14.40;91.80;99329.80;224909;1259;138794;-73
2023/09/28 06:39:17;;;;;;;29.60;25.40;;;;;;;14.61;91.63;99336.77;225171;1259;24193;-73
2023/09/28 06:44:19;;;;;;;27.20;23.80;;;;;;;14.79;91.24;99336.32;225009;1267;138369;-72
2023/09/28 06:49:21;;;;;;;31.00;27.60;;;;;;;15.03;91.61;99342.58;225141;1267;138680;-72
2023/09/28 06:54:23;;;;;;;26.60;22.90;;;;;;;15.35;91.54;99345.95;225130;1273;138842;-72
2023/09/28 06:59:25;;;;;;;26.50;23.40;;;;;;;15.60;91.29;99349.46;225147;1270;138874;-72
2023/09/28 07:04:29;;;;;;;27.80;23.10;;;;;;;15.87;90.99;99352.42;225302;1259;138925;-71
2023/09/28 07:09:32;;;;;;;25.10;21.70;;;;;;;16.14;90.67;99347.77;225530;1273;22549;-71
2023/09/28 07:14:51;;;;;;;;;;;;;;;16.37;89.86;99345.19;225200;1273;22589;-71
2023/09/28 07:19:54;;;;;;;23.20;20.30;;;;;;;16.57;89.54;99348.10;225018;1273;124802;-71
2023/09/28 07:24:57;;;;;;;28.50;24.30;;;;;;;16.79;89.01;99344.64;225131;1273;139001;-71
2023/09/28 07:29:59;;;;;;;27.50;24.50;;;;;;;17.04;89.09;99346.33;225079;1265;138848;-71
2023/09/28 07:35:02;;;;;;;20.10;17.80;;;;;;;17.28;88.79;99347.05;225176;1276;139274;-71
2023/09/28 07:40:07;;;;;;;23.50;19.50;;;;;;;17.53;88.37;99343.16;225204;1258;138917;-71
2023/09/28 07:45:11;;;;;;;18.70;15.20;;;;;;;17.78;87.89;99340.58;225319;1270;25238;-71
2023/09/28 07:50:14;;;;;;;17.60;15.10;;;;;;;18.06;87.54;99337.48;225390;1274;138557;-71
2023/09/28 07:55:17;;;;;;;16.10;14.20;;;;;;;18.34;87.09;99343.77;225450;1273;139034;-71
2023/09/28 08:00:19;;;;;;;15.70;13.40;;;;;;;18.62;86.71;99349.67;225453;1273;138887;-71
2023/09/28 08:05:22;;;;;;;16.80;14.30;;;;;;;18.92;86.02;99348.11;225326;1274;138835;-72
2023/09/28 08:10:24;;;;;;;12.80;11.50;;;;;;;19.23;85.34;99352.16;225072;1278;139831;-72
2023/09/28 08:15:26;;;;;;;14.40;10.60;;;;;;;19.54;84.76;99350.67;225334;1278;22568;-72
2023/09/28 08:20:38;;;;;;;16.20;9.30;;;;;;;19.85;84.00;99348.42;225148;1278;138511;-73
2023/09/28 08:25:46;;;;;;;11.10;9.50;;;;;;;20.15;83.07;99352.30;225264;1273;138439;-77
2023/09/28 08:30:49;;;;;;;12.50;8.50;;;;;;;20.39;82.00;99347.77;225197;1261;138892;-72
2023/09/28 08:35:50;;;;;;;11.40;8.00;;;;;;;20.64;81.50;99343.55;225128;1277;138822;-72
2023/09/28 08:41:01;;;;;;;11.50;8.30;;;;;;;20.90;80.49;99344.51;225201;1279;138728;-72
2023/09/28 08:46:09;;;;;;;10.20;7.30;;;;;;;21.16;79.24;99346.23;225312;1273;139744;-72
2023/09/28 08:51:12;;;;;;;8.90;6.80;;;;;;;21.37;78.48;99344.67;225388;1274;22536;-73
2023/09/28 08:56:14;;;;;;;8.00;5.70;;;;;;;21.57;77.89;99343.10;225295;1271;139308;-74
2023/09/28 09:01:17;;;;;;;8.40;5.70;;;;;;;21.77;76.63;99343.67;225128;1265;140377;-72
2023/09/28 09:06:20;;;;;;;5.30;4.80;;;;;;;21.99;75.47;99342.19;225427;1275;137777;-78
2023/09/28 09:11:28;;;;;;;12.00;6.20;;;;;;;22.19;73.63;99332.08;225353;1257;138146;-73
2023/09/28 09:16:30;;;;;;;7.00;4.90;;;;;;;22.35;72.21;99332.59;225308;1259;138083;-73
2023/09/28 09:21:40;;;;;;;9.00;7.00;;;;;;;22.50;71.64;99329.44;225528;1278;22708;-73
2023/09/28 09:26:47;;;;;;;7.30;5.70;;;;;;;22.66;70.49;99333.15;225544;1274;22540;-72
2023/09/28 09:31:50;;;;;;;10.10;6.40;;;;;;;22.85;69.77;99333.39;225412;1278;138897;-73
2023/09/28 09:36:58;;;;;;;7.60;5.00;;;;;;;23.00;69.36;99335.91;225184;1275;138142;-72
2023/09/28 09:42:00;;;;;;;9.00;5.50;;;;;;;23.15;68.55;99334.22;225247;1277;138940;-72
2023/09/28 09:47:02;;;;;;;9.00;6.70;;;;;;;23.26;68.03;99336.36;225332;1274;138036;-73
2023/09/28 09:52:06;;;;;;;8.80;6.30;;;;;;;23.38;67.51;99335.59;225337;1268;137824;-75
2023/09/28 09:57:11;;;;;;;8.40;6.30;;;;;;;23.49;66.47;99332.30;225460;1276;22581;-73
2023/09/28 10:02:25;;;;;;;8.00;5.90;;;;;;;23.61;66.36;99329.27;225289;1269;137831;-72
2023/09/28 10:07:33;;;;;;;6.90;5.50;;;;;;;23.71;66.05;99328.31;225250;1273;138363;-80
2023/09/28 10:12:50;;;;;;;7.60;6.30;;;;;;;23.80;65.19;99330.85;225182;1265;137755;-72
2023/09/28 10:17:53;;;;;;;9.10;6.20;;;;;;;23.89;65.12;99323.41;225286;1275;137935;-72
2023/09/28 10:22:56;;;;;;;8.90;6.60;;;;;;;24.00;64.54;99324.71;225195;1276;137815;-72
2023/09/28 10:27:58;;;;;;;7.70;6.10;;;;;;;24.10;64.19;99321.02;225241;1276;137963;-71
2023/09/28 10:33:10;;;;;;;9.00;7.70;;;;;;;24.21;63.67;99319.09;225505;1259;22632;-73
2023/09/28 10:38:22;;;;;;;7.70;6.50;;;;;;;24.32;62.65;99316.52;225425;1270;137542;-77
2023/09/28 10:43:29;;;;;;;6.10;5.60;;;;;;;24.48;62.13;99315.17;225213;1279;137578;-73
2023/09/28 10:48:46;;;;;;;7.80;6.20;;;;;;;24.64;61.67;99316.34;225284;1262;138499;-73
2023/09/28 10:53:48;;;;;;;7.40;5.90;;;;;;;24.77;61.31;99318.05;225213;1279;138071;-72
2023/09/28 10:58:50;;;;;;;9.40;5.50;;;;;;;24.86;60.64;99316.98;225279;1275;137880;-73
2023/09/28 11:03:54;;;;;;;7.20;6.00;;;;;;;24.98;59.74;99318.54;225318;1275;137878;-73
2023/09/28 11:09:01;;;;;;;8.50;5.30;;;;;;;25.09;59.19;99313.84;225277;1269;22532;-74
2023/09/28 11:14:05;;;;;;;6.20;5.60;;;;;;;25.16;57.98;99314.72;225269;1278;137412;-79
2023/09/28 11:19:11;;;;;;;7.80;5.80;;;;;;;25.25;57.25;99301.63;225150;1266;138146;-73
2023/09/28 11:24:13;;;;;;;7.60;5.30;;;;;;;25.32;57.40;99299.02;225189;1274;137756;-74
2023/09/28 11:29:17;;;;;;;5.90;5.30;;;;;;;25.39;56.37;99300.80;225135;1262;137776;-75
2023/09/28 11:34:30;;;;;;;6.60;5.80;;;;;;;25.45;56.59;99303.89;225063;1278;137913;-73
2023/09/28 11:39:32;;;;;;;9.50;6.00;;;;;;;25.52;56.25;99302.16;225239;1262;22555;-72
2023/09/28 11:44:34;;;;;;;6.40;5.60;;;;;;;25.60;56.21;99294.99;225083;1266;137242;-72
2023/09/28 11:49:41;;;;;;;6.50;5.40;;;;;;;25.67;56.09;99294.63;225150;1262;137959;-76
2023/09/28 11:54:43;;;;;;;8.40;5.80;;;;;;;25.71;55.40;99289.04;225083;1281;138107;-77
2023/09/28 11:59:46;;;;;;;7.90;6.10;;;;;;;25.61;52.32;99284.56;224797;1278;137699;-73
2023/09/28 12:04:48;;;;;;;8.10;6.10;;;;;;;25.54;53.03;99276.97;224918;1259;138916;-73
2023/09/28 12:09:50;;;;;;;6.80;5.40;;;;;;;25.57;53.87;99275.83;225047;1259;139120;-73
2023/09/28 12:15:10;;;;;;;7.50;5.80;;;;;;;25.64;53.42;99271.27;225301;1259;25453;-73
2023/09/28 12:20:12;;;;;;;9.40;5.70;;;;;;;25.69;53.04;99275.67;225126;1280;137741;-71
2023/09/28 12:25:14;;;;;;;6.90;6.20;;;;;;;25.70;53.43;99272.25;224983;1269;137691;-72
2023/09/28 12:30:22;;;;;;;7.30;6.00;;;;;;;25.74;53.29;99269.00;224982;1262;137881;-73
2023/09/28 12:35:25;;;;;;;9.20;6.20;;;;;;;25.70;52.89;99260.73;225012;1268;137771;-73
2023/09/28 12:40:28;;;;;;;6.60;5.60;;;;;;;25.63;52.47;99262.81;224912;1265;137786;-73
2023/09/28 12:45:32;;;;;;;7.60;6.60;;;;;;;25.62;53.14;99259.83;225598;1274;22086;-73
2023/09/28 12:50:35;;;;;;;9.20;6.30;;;;;;;25.68;53.53;99260.63;224842;1276;137396;-73
2023/09/28 12:55:37;;;;;;;9.80;6.50;;;;;;;25.72;53.14;99260.94;224928;1273;137866;-72
2023/09/28 13:00:39;;;;;;;9.60;6.20;;;;;;;25.74;52.98;99258.06;224758;1259;137807;-72
2023/09/28 13:05:42;;;;;;;6.50;5.70;;;;;;;25.75;53.34;99254.33;224834;1271;137842;-73
2023/09/28 13:10:44;;;;;;;7.90;6.20;;;;;;;25.78;53.39;99249.61;225006;1279;137892;-73
2023/09/28 13:15:46;;;;;;;7.30;6.00;;;;;;;25.78;53.11;99246.42;225021;1262;137872;-73
2023/09/28 13:20:48;;;;;;;8.10;5.70;;;;;;;25.77;53.20;99245.06;225037;1279;22555;-73
2023/09/28 13:25:50;;;;;;;9.20;6.40;;;;;;;25.82;53.53;99236.87;224913;1277;137407;-73
2023/09/28 13:30:53;;;;;;;11.80;6.30;;;;;;;25.87;53.19;99232.40;224985;1264;138627;-73
2023/09/28 13:35:56;;;;;;;6.70;6.10;;;;;;;25.90;52.92;99235.81;224825;1281;138205;-73
2023/09/28 13:40:58;;;;;;;7.60;6.30;;;;;;;25.87;52.88;99234.09;224692;1265;189953;-73
2023/09/28 13:46:16;;;;;;;6.90;6.10;;;;;;;25.84;52.20;99227.27;224968;1281;138606;-73
2023/09/28 13:51:18;;;;;;;6.40;5.80;;;;;;;25.83;52.51;99229.76;225504;1275;22553;-73
2023/09/28 13:56:21;;;;;;;6.40;5.70;;;;;;;25.84;52.24;99229.21;225113;1262;137951;-74
2023/09/28 14:01:23;;;;;;;11.60;8.90;;;;;;;25.84;52.28;99224.17;225028;1271;137737;-72
2023/09/28 14:06:25;;;;;;;6.70;6.00;;;;;;;25.85;52.19;99218.98;224806;1272;138108;-71
2023/09/28 14:11:27;;;;;;;6.20;5.10;;;;;;;25.85;51.65;99219.63;225078;1275;137902;-71
2023/09/28 14:16:32;;;;;;;8.40;5.40;;;;;;;25.83;51.56;99217.69;225095;1278;137825;-72
2023/09/28 14:21:39;;;;;;;8.30;5.80;;;;;;;25.81;51.51;99216.42;225357;1278;22553;-73
2023/09/28 14:26:41;;;;;;;7.00;5.80;;;;;;;25.78;51.50;99215.45;225334;1275;138947;-73
2023/09/28 14:31:44;;;;;;;7.20;5.70;;;;;;;25.70;50.83;99219.85;225410;1281;137871;-73
2023/09/28 14:36:46;;;;;;;7.30;5.60;;;;;;;25.61;51.70;99216.30;225491;1278;137764;-73
2023/09/28 14:41:48;;;;;;;7.00;6.30;;;;;;;25.53;51.90;99215.11;225546;1275;137709;-73
2023/09/28 14:46:51;;;;;;;7.30;5.80;;;;;;;25.41;52.37;99211.02;225471;1278;139023;-73
2023/09/28 14:51:53;;;;;;;7.80;6.20;;;;;;;25.28;52.80;99212.78;225535;1278;137781;-73
2023/09/28 14:56:54;;;;;;;10.30;6.60;;;;;;;25.15;52.82;99210.54;225671;1281;22584;-73
2023/09/28 15:01:56;;;;;;;9.60;6.50;;;;;;;25.03;52.99;99209.58;225519;1281;137792;-72
2023/09/28 15:06:58;;;;;;;7.70;6.70;;;;;;;24.91;53.20;99209.98;225523;1275;138105;-73
2023/09/28 15:12:00;;;;;;;7.60;6.50;;;;;;;24.79;53.46;99211.61;225573;1278;137850;-73
2023/09/28 15:17:03;;;;;;;8.90;5.90;;;;;;;24.64;53.60;99209.27;225592;1278;138007;-72
2023/09/28 15:22:05;;;;;;;7.00;6.00;;;;;;;24.47;53.70;99205.63;225472;1280;139624;-72
2023/09/28 15:27:08;;;;;;;7.10;6.30;;;;;;;24.28;53.95;99203.27;225646;1279;22565;-73
2023/09/28 15:32:13;;;;;;;9.10;6.30;;;;;;;24.06;54.55;99203.78;225578;1281;137487;-73
2023/09/28 15:37:18;;;;;;;9.10;6.20;;;;;;;23.84;54.90;99204.94;225535;1274;137553;-73
2023/09/28 15:42:20;;;;;;;11.10;6.30;;;;;;;23.62;55.39;99207.38;225550;1281;138526;-72
2023/09/28 15:47:22;;;;;;;7.90;6.00;;;;;;;23.40;55.47;99208.57;225538;1274;138587;-72
2023/09/28 15:52:24;;;;;;;7.80;6.00;;;;;;;23.19;55.62;99208.13;225541;1281;138471;-73
2023/09/28 15:57:26;;;;;;;7.60;6.00;;;;;;;23.00;56.01;99213.42;225606;1278;22574;-73
2023/09/28 16:02:28;;;;;;;10.50;6.40;;;;;;;22.80;56.34;99214.35;225536;1281;137780;-72
2023/09/28 16:07:31;;;;;;;7.30;5.80;;;;;;;22.60;56.66;99210.20;225600;1278;137885;-72
2023/09/28 16:12:33;;;;;;;8.80;5.60;;;;;;;22.40;56.90;99211.20;225458;1279;138013;-72
2023/09/28 16:17:35;;;;;;;9.60;5.80;;;;;;;22.21;57.15;99207.28;225560;1274;137793;-72
2023/09/28 16:22:38;;;;;;;8.70;5.60;;;;;;;21.99;57.56;99214.04;225577;1281;137771;-72
2023/09/28 16:27:39;;;;;;;8.00;5.30;;;;;;;21.78;58.02;99216.44;225649;1281;22565;-73
2023/09/28 16:32:41;;;;;;;8.30;5.60;;;;;;;21.54;58.51;99218.72;225622;1278;138304;-72
2023/09/28 16:37:43;;;;;;;7.20;5.80;;;;;;;21.28;58.98;99217.38;225554;1280;137597;-72
2023/09/28 16:42:47;;;;;;;10.00;7.00;;;;;;;21.02;59.44;99221.05;225565;1278;137954;-72
2023/09/28 16:47:49;;;;;;;9.50;6.30;;;;;;;20.77;60.05;99222.36;225521;1278;138053;-72
2023/09/28 16:52:51;;;;;;;7.80;6.30;;;;;;;20.53;60.63;99219.62;225592;1281;138738;-72
2023/09/28 16:57:53;;;;;;;10.50;7.00;;;;;;;20.29;61.11;99222.64;225461;1281;139304;-72
2023/09/28 17:02:55;;;;;;;11.30;8.10;;;;;;;20.06;61.60;99220.70;225609;1281;22647;-73
2023/09/28 17:07:57;;;;;;;9.90;8.10;;;;;;;19.83;61.98;99215.35;225532;1281;137557;-72
2023/09/28 17:12:59;;;;;;;9.80;8.10;;;;;;;19.61;62.48;99213.30;225614;1278;138035;-73
2023/09/28 17:18:01;;;;;;;14.90;9.10;;;;;;;19.40;62.93;99214.25;225547;1278;137911;-72
2023/09/28 17:23:20;;;;;;;14.50;9.80;;;;;;;19.20;63.40;99222.80;225453;1281;137998;-72
2023/09/28 17:28:24;;;;;;;15.60;10.90;;;;;;;18.99;63.94;99229.59;225520;1272;138050;-72
2023/09/28 17:33:29;;;;;;;17.00;11.10;;;;;;;18.81;64.35;99228.61;225684;1278;22734;-72
2023/09/28 17:38:31;;;;;;;15.80;12.70;;;;;;;18.63;64.85;99233.63;225624;1279;138520;-73
2023/09/28 17:43:35;;;;;;;18.50;13.60;;;;;;;18.48;65.21;99241.64;225615;1281;139394;-72
2023/09/28 17:48:37;;;;;;;17.00;12.20;;;;;;;18.33;65.71;99246.30;225568;1281;139018;-72
2023/09/28 17:53:40;;;;;;;16.00;10.80;;;;;;;18.19;66.23;99252.28;225555;1278;138355;-72
2023/09/28 17:58:42;;;;;;;11.80;9.50;;;;;;;18.08;66.90;99262.71;225510;1281;138782;-73
2023/09/28 18:03:45;;;;;;;16.00;11.60;;;;;;;18.06;67.75;99274.23;225502;1281;138692;-72
2023/09/28 18:08:48;;;;;;;20.40;12.20;;;;;;;17.98;68.38;99276.98;225637;1281;22566;-72
2023/09/28 18:13:51;;;;;;;17.20;13.10;;;;;;;17.86;69.04;99283.98;225589;1281;138843;-71
2023/09/28 18:18:53;;;;;;;17.00;13.50;;;;;;;17.73;69.79;99284.59;225543;1278;138916;-73
2023/09/28 18:23:57;;;;;;;21.90;12.20;;;;;;;17.62;70.29;99290.39;225384;1281;138942;-72
2023/09/28 18:29:04;;;;;;;17.80;12.60;;;;;;;17.53;70.76;99290.04;225551;1278;139525;-72
2023/09/28 18:34:07;;;;;;;19.60;11.90;;;;;;;17.47;71.07;99290.94;225430;1281;138952;-72
2023/09/28 18:39:09;;;;;;;18.10;13.90;;;;;;;17.43;71.18;99287.60;225680;1281;22577;-72
2023/09/28 18:44:16;;;;;;;19.40;14.60;;;;;;;17.37;71.49;99295.79;225540;1281;139983;-72
2023/09/28 18:49:21;;;;;;;18.80;14.90;;;;;;;17.30;71.89;99300.38;225478;1258;138963;-72
2023/09/28 18:54:23;;;;;;;19.70;15.60;;;;;;;17.23;72.05;99298.82;225522;1281;138802;-73
2023/09/28 18:59:28;;;;;;;23.10;14.20;;;;;;;17.17;72.05;99299.54;225479;1281;139736;-72
2023/09/28 19:04:29;;;;;;;21.00;16.20;;;;;;;17.12;72.06;99306.55;225442;1279;139687;-72
2023/09/28 19:09:36;;;;;;;26.60;17.70;;;;;;;17.05;72.34;99313.80;225650;1279;22563;-73
2023/09/28 19:14:39;;;;;;;22.40;14.10;;;;;;;16.96;72.26;99316.45;225454;1281;138557;-73
2023/09/28 19:19:41;;;;;;;18.10;13.80;;;;;;;16.87;72.43;99317.17;225562;1279;138857;-72
2023/09/28 19:24:44;;;;;;;18.60;13.50;;;;;;;16.81;72.44;99317.08;225470;1279;139851;-72
2023/09/28 19:29:47;;;;;;;18.10;14.10;;;;;;;16.77;72.72;99313.41;225457;1279;139467;-72
2023/09/28 19:34:50;;;;;;;20.00;15.20;;;;;;;16.73;72.77;99312.91;225557;1279;139007;-72
2023/09/28 19:39:53;;;;;;;23.10;16.20;;;;;;;16.70;73.02;99318.38;225585;1279;138752;-72
2023/09/28 19:44:55;;;;;;;20.70;16.10;;;;;;;16.64;73.09;99317.99;225657;1279;22527;-72
2023/09/28 19:49:57;;;;;;;30.00;20.70;;;;;;;16.56;73.33;99316.13;225516;1281;138405;-73
2023/09/28 19:54:59;;;;;;;22.50;18.60;;;;;;;16.47;73.73;99318.92;225532;1280;138974;-72
2023/09/28 20:00:07;;;;;;;28.10;21.70;;;;;;;16.38;74.16;99321.50;225563;1281;140140;-73
2023/09/28 20:05:10;;;;;;;29.90;23.70;;;;;;;16.30;74.36;99321.47;225541;1281;139198;-73
2023/09/28 20:10:13;;;;;;;28.60;23.90;;;;;;;16.21;74.62;99323.00;225575;1281;139726;-73
2023/09/28 20:15:15;;;;;;;29.30;24.00;;;;;;;16.13;74.75;99324.36;225691;1278;22549;-73
2023/09/28 20:20:16;;;;;;;34.70;25.70;;;;;;;16.04;75.24;99326.23;225633;1281;138967;-73
2023/09/28 20:25:18;;;;;;;34.60;26.60;;;;;;;15.95;75.62;99330.14;225554;1281;138604;-73
2023/09/28 20:30:21;;;;;;;32.30;25.40;;;;;;;15.85;75.60;99329.31;225551;1281;139082;-73
2023/09/28 20:35:23;;;;;;;30.40;25.20;;;;;;;15.78;76.21;99335.67;225595;1281;138926;-72
2023/09/28 20:40:25;;;;;;;31.40;24.50;;;;;;;15.70;76.32;99338.40;225556;1279;139083;-72
2023/09/28 20:45:27;;;;;;;32.30;24.50;;;;;;;15.61;76.37;99337.42;225655;1278;22547;-72
2023/09/28 20:50:29;;;;;;;34.00;28.70;;;;;;;15.53;77.05;99339.87;225490;1265;139318;-72
2023/09/28 20:55:31;;;;;;;33.90;25.10;;;;;;;15.46;76.92;99337.89;225533;1281;139393;-72
2023/09/28 21:00:34;;;;;;;32.90;23.90;;;;;;;15.37;77.12;99342.57;225585;1281;138798;-72
2023/09/28 21:05:36;;;;;;;31.40;24.20;;;;;;;15.30;77.38;99344.69;225436;1281;138916;-72
2023/09/28 21:10:42;;;;;;;31.00;24.30;;;;;;;15.20;77.48;99350.05;225586;1281;139339;-72
2023/09/28 21:15:44;;;;;;;31.20;25.80;;;;;;;15.12;77.79;99351.33;225556;1281;139001;-72
2023/09/28 21:20:45;;;;;;;31.70;25.30;;;;;;;15.03;77.89;99346.92;225684;1281;22718;-72
2023/09/28 21:25:48;;;;;;;32.40;25.50;;;;;;;14.96;78.13;99348.36;225515;1281;138922;-72
2023/09/28 21:30:49;;;;;;;34.30;25.10;;;;;;;14.88;78.73;99347.38;225628;1281;138809;-72
2023/09/28 21:35:51;;;;;;;32.30;24.90;;;;;;;14.83;79.18;99346.84;225528;1281;138780;-72
2023/09/28 21:40:53;;;;;;;32.60;24.80;;;;;;;14.79;79.22;99347.58;225585;1281;138966;-72
2023/09/28 21:45:55;;;;;;;33.30;24.80;;;;;;;14.73;79.39;99346.56;225601;1281;138912;-72
2023/09/28 21:50:59;;;;;;;32.30;25.10;;;;;;;14.66;79.84;99342.84;225724;1281;22543;-72
2023/09/28 21:56:01;;;;;;;34.70;25.10;;;;;;;14.61;80.24;99343.52;225640;1280;138427;-72
2023/09/28 22:01:05;;;;;;;34.70;24.40;;;;;;;14.57;80.33;99343.16;225588;1281;139715;-72
2023/09/28 22:06:07;;;;;;;35.60;26.00;;;;;;;14.53;80.51;99347.98;225626;1280;138936;-72
2023/09/28 22:11:10;;;;;;;32.90;24.10;;;;;;;14.47;80.79;99345.84;225580;1279;138926;-71
2023/09/28 22:16:12;;;;;;;33.90;24.40;;;;;;;14.43;80.96;99346.39;225617;1281;138829;-71
2023/09/28 22:21:16;;;;;;;25.70;22.00;;;;;;;14.39;81.45;99340.18;225682;1280;25327;-72
2023/09/28 22:26:20;;;;;;;26.80;20.90;;;;;;;14.34;81.35;99341.98;225617;1279;140004;-72
2023/09/28 22:31:22;;;;;;;25.40;20.90;;;;;;;14.29;81.48;99347.64;225601;1281;138607;-72
2023/09/28 22:36:25;;;;;;;25.20;20.10;;;;;;;14.22;81.59;99343.90;225663;1280;138888;-73
2023/09/28 22:41:26;;;;;;;24.90;19.60;;;;;;;14.17;81.89;99346.41;225556;1281;138886;-72
2023/09/28 22:46:28;;;;;;;23.80;19.60;;;;;;;14.12;82.12;99347.02;225626;1280;139968;-72
2023/09/28 22:51:30;;;;;;;23.60;19.40;;;;;;;14.08;82.12;99352.25;225678;1276;22576;-72
2023/09/28 22:56:32;;;;;;;23.70;18.40;;;;;;;14.02;82.12;99350.05;225641;1280;138996;-71